Time;durP1;ratioP1;P1;durP2;ratioP2;P2;SDS_P1;SDS_P2;PMS_P1;PMS_P2;Temp;Humidity;BMP_temperature;BMP_pressure;BME280_temperature;BME280_humidity;BME280_pressure;Samples;Min_cycle;Max_cycle;Signal;HPM_P1;HPM_P2
2023/08/08 00:00:08;;;;;;;5.85;2.75;;;12.90;99.90;;;;;;5083454;28;21364;-71
2023/08/08 00:02:34;;;;;;;12.20;2.65;;;13.00;99.90;;;;;;5083091;28;20028;-72
2023/08/08 00:04:59;;;;;;;8.43;2.70;;;12.90;99.90;;;;;;5084113;28;20026;-72
2023/08/08 00:07:26;;;;;;;7.85;2.85;;;13.00;99.90;;;;;;5082000;28;20016;-72
2023/08/08 00:09:51;;;;;;;5.60;2.80;;;12.90;99.90;;;;;;5081872;28;20040;-75
2023/08/08 00:12:17;;;;;;;6.47;2.63;;;12.90;99.90;;;;;;5082485;28;20021;-73
2023/08/08 00:14:42;;;;;;;10.30;2.83;;;12.90;99.90;;;;;;5082103;28;20048;-73
2023/08/08 00:17:08;;;;;;;12.13;3.20;;;12.90;99.90;;;;;;5082770;28;20020;-74
2023/08/08 00:19:34;;;;;;;6.28;2.78;;;12.90;99.90;;;;;;5083425;28;20023;-71
2023/08/08 00:21:59;;;;;;;10.25;2.80;;;12.90;99.90;;;;;;5084051;28;20466;-72
2023/08/08 00:24:25;;;;;;;10.85;3.28;;;12.90;99.90;;;;;;5083095;28;20070;-73
2023/08/08 00:26:50;;;;;;;9.27;2.90;;;12.90;99.90;;;;;;5081459;28;20393;-72
2023/08/08 00:29:16;;;;;;;5.47;2.38;;;12.90;99.90;;;;;;5083318;28;20028;-75
2023/08/08 00:31:42;;;;;;;6.07;2.53;;;12.80;99.90;;;;;;5083043;28;20046;-70
2023/08/08 00:34:07;;;;;;;10.20;2.83;;;12.90;99.90;;;;;;5082920;28;20055;-73
2023/08/08 00:36:33;;;;;;;6.80;2.60;;;12.90;99.90;;;;;;5081534;28;20024;-73
2023/08/08 00:38:59;;;;;;;13.55;3.33;;;12.90;99.90;;;;;;5083559;28;20068;-72
2023/08/08 00:41:25;;;;;;;8.95;2.70;;;12.80;99.90;;;;;;5082146;28;20042;-71
2023/08/08 00:43:51;;;;;;;7.78;2.90;;;12.90;99.90;;;;;;5080469;28;20028;-76
2023/08/08 00:46:20;;;;;;;11.13;2.72;;;12.90;99.90;;;;;;5081390;28;20032;-72
2023/08/08 00:48:46;;;;;;;7.55;2.92;;;12.90;99.90;;;;;;5082400;28;20529;-71
2023/08/08 00:51:11;;;;;;;8.82;3.08;;;12.90;99.90;;;;;;5082152;28;20060;-70
2023/08/08 00:53:37;;;;;;;8.30;3.03;;;12.90;99.90;;;;;;5081067;28;20045;-74
2023/08/08 00:56:03;;;;;;;8.57;3.03;;;12.80;99.90;;;;;;5082842;28;20028;-72
2023/08/08 00:58:29;;;;;;;6.93;2.80;;;12.90;99.90;;;;;;5081519;28;20024;-72
2023/08/08 01:00:57;;;;;;;6.25;2.92;;;12.90;99.90;;;;;;5080994;28;21266;-73
2023/08/08 01:03:23;;;;;;;12.45;3.20;;;12.90;99.90;;;;;;5082183;28;20028;-71
2023/08/08 01:06:08;;;;;;;10.80;3.03;;;12.80;99.90;;;;;;5082468;28;20029;-74
2023/08/08 01:08:58;;;;;;;11.45;2.95;;;12.90;99.90;;;;;;5081494;28;20037;-74
2023/08/08 01:11:27;;;;;;;9.10;3.00;;;12.80;99.90;;;;;;5079663;28;20032;-74
2023/08/08 01:13:54;;;;;;;5.60;3.03;;;12.90;99.90;;;;;;5081520;28;20043;-71
2023/08/08 01:16:21;;;;;;;7.57;2.80;;;12.80;99.90;;;;;;5082604;28;20027;-73
2023/08/08 01:18:48;;;;;;;9.07;3.10;;;12.90;99.90;;;;;;5081172;28;20021;-75
2023/08/08 01:21:15;;;;;;;7.10;3.20;;;12.80;99.90;;;;;;5080749;28;20012;-73
2023/08/08 01:23:56;;;;;;;6.55;3.10;;;12.80;99.90;;;;;;5081507;28;20104;-74
2023/08/08 01:26:22;;;;;;;10.82;3.10;;;12.80;99.90;;;;;;5080475;28;20031;-73
2023/08/08 01:28:47;;;;;;;6.95;2.55;;;12.90;99.90;;;;;;5081851;28;20099;-73
2023/08/08 01:31:13;;;;;;;5.55;2.88;;;12.90;99.90;;;;;;5081916;28;20135;-71
2023/08/08 01:33:39;;;;;;;5.57;3.03;;;13.00;99.90;;;;;;5080814;28;20442;-73
2023/08/08 01:36:25;;;;;;;7.65;3.13;;;12.90;99.90;;;;;;5082179;28;20032;-69
2023/08/08 01:38:52;;;;;;;7.35;2.95;;;13.00;99.90;;;;;;5080824;28;20024;-73
2023/08/08 01:41:19;;;;;;;7.30;3.00;;;13.00;99.90;;;;;;5082067;28;20017;-75
2023/08/08 01:43:46;;;;;;;6.07;3.03;;;13.00;99.90;;;;;;5081974;28;20417;-75
2023/08/08 01:46:12;;;;;;;4.72;3.05;;;13.10;99.90;;;;;;5081511;28;20024;-72
2023/08/08 01:48:38;;;;;;;12.20;2.80;;;13.10;99.90;;;;;;5080342;28;20720;-72
2023/08/08 01:51:03;;;;;;;11.50;3.22;;;13.10;99.90;;;;;;5079474;28;20017;-76
2023/08/08 01:53:29;;;;;;;10.25;3.78;;;13.00;99.90;;;;;;5080595;28;20046;-72
2023/08/08 01:55:54;;;;;;;10.63;3.55;;;13.00;99.90;;;;;;5080062;28;20024;-72
2023/08/08 01:58:20;;;;;;;10.90;3.38;;;13.00;99.90;;;;;;5081595;28;20035;-71
2023/08/08 02:00:46;;;;;;;6.68;3.63;;;12.90;99.90;;;;;;5081136;28;20079;-72
2023/08/08 02:03:12;;;;;;;8.80;3.35;;;12.90;99.90;;;;;;5081719;28;20024;-72
2023/08/08 02:05:38;;;;;;;9.65;3.10;;;12.90;99.90;;;;;;5081050;28;20052;-71
2023/08/08 02:08:04;;;;;;;8.55;3.03;;;12.80;99.90;;;;;;5079668;28;20066;-72
2023/08/08 02:10:30;;;;;;;6.68;3.67;;;12.90;99.90;;;;;;5080610;28;20029;-74
2023/08/08 02:12:55;;;;;;;10.13;4.15;;;12.80;99.90;;;;;;5079859;28;20456;-72
2023/08/08 02:15:21;;;;;;;11.45;4.50;;;12.80;99.90;;;;;;5081204;28;20029;-73
2023/08/08 02:17:47;;;;;;;8.25;3.95;;;12.80;99.90;;;;;;5080680;28;20488;-73
2023/08/08 02:20:12;;;;;;;8.77;4.10;;;12.90;99.90;;;;;;5079938;28;20024;-72
2023/08/08 02:22:38;;;;;;;9.52;4.15;;;12.90;99.90;;;;;;5081545;28;20024;-72
2023/08/08 02:25:04;;;;;;;11.07;4.25;;;12.90;99.90;;;;;;5080615;28;20136;-73
2023/08/08 02:27:30;;;;;;;9.13;4.47;;;12.90;99.90;;;;;;5080425;28;20021;-72
2023/08/08 02:29:57;;;;;;;15.00;5.05;;;12.90;99.90;;;;;;5081691;28;20063;-72
2023/08/08 02:32:23;;;;;;;11.38;4.50;;;12.90;99.90;;;;;;5080929;28;20051;-72
2023/08/08 02:34:49;;;;;;;9.98;4.65;;;12.90;99.90;;;;;;5080492;28;20037;-71
2023/08/08 02:37:14;;;;;;;9.40;4.40;;;12.90;99.90;;;;;;5080790;28;20016;-73
2023/08/08 02:39:42;;;;;;;6.30;3.63;;;12.80;99.90;;;;;;5081217;28;20405;-74
2023/08/08 02:42:08;;;;;;;10.05;3.92;;;12.80;99.90;;;;;;5079168;28;20021;-71
2023/08/08 02:44:33;;;;;;;7.07;3.85;;;12.80;99.90;;;;;;5081313;28;20025;-71
2023/08/08 02:46:59;;;;;;;13.57;4.00;;;12.80;99.90;;;;;;5080017;28;20480;-72
2023/08/08 02:49:24;;;;;;;9.05;4.82;;;12.80;99.90;;;;;;5081017;28;20504;-73
2023/08/08 02:51:50;;;;;;;14.70;5.22;;;12.80;99.90;;;;;;5079012;28;20123;-72
2023/08/08 02:54:15;;;;;;;14.70;4.38;;;12.70;99.90;;;;;;5080957;28;20111;-71
2023/08/08 02:56:41;;;;;;;15.30;4.70;;;12.70;99.90;;;;;;5079755;28;20031;-73
2023/08/08 02:59:06;;;;;;;14.27;5.22;;;12.70;99.90;;;;;;5081347;28;20111;-71
2023/08/08 03:01:32;;;;;;;10.98;5.10;;;12.70;99.90;;;;;;5079682;28;20078;-71
2023/08/08 03:03:58;;;;;;;9.15;5.28;;;12.80;99.90;;;;;;5080542;28;20162;-71
2023/08/08 03:06:23;;;;;;;10.20;5.13;;;12.70;99.90;;;;;;5080876;28;20497;-71
2023/08/08 03:08:49;;;;;;;11.57;5.13;;;12.70;99.90;;;;;;5079395;28;20035;-72
2023/08/08 03:11:14;;;;;;;13.48;5.47;;;12.80;99.90;;;;;;5079609;28;20492;-73
2023/08/08 03:13:40;;;;;;;12.35;5.70;;;12.70;99.90;;;;;;5080514;28;20028;-72
2023/08/08 03:16:06;;;;;;;11.60;5.68;;;12.70;99.90;;;;;;5079642;28;20099;-72
2023/08/08 03:18:31;;;;;;;10.63;5.32;;;12.80;99.90;;;;;;5080554;28;20470;-74
2023/08/08 03:20:57;;;;;;;11.25;5.93;;;12.80;99.90;;;;;;5080377;28;20035;-73
2023/08/08 03:23:23;;;;;;;11.93;5.65;;;12.80;99.90;;;;;;5080867;28;20024;-72
2023/08/08 03:25:49;;;;;;;12.93;5.80;;;12.70;99.90;;;;;;5080915;28;20060;-73
2023/08/08 03:28:14;;;;;;;14.63;6.35;;;12.80;99.90;;;;;;5080592;28;20025;-71
2023/08/08 03:30:40;;;;;;;17.27;6.80;;;12.80;99.90;;;;;;5083276;28;20017;-73
2023/08/08 03:33:05;;;;;;;14.90;7.45;;;12.80;99.90;;;;;;5084195;28;20028;-72
2023/08/08 03:35:31;;;;;;;21.55;7.20;;;12.70;99.90;;;;;;5084211;28;20076;-72
2023/08/08 03:37:57;;;;;;;21.45;7.80;;;12.70;99.90;;;;;;5082821;28;20040;-71
2023/08/08 03:40:22;;;;;;;21.05;7.97;;;12.70;99.90;;;;;;5082760;28;20047;-72
2023/08/08 03:42:48;;;;;;;18.20;7.63;;;12.60;99.90;;;;;;5082489;28;20036;-70
2023/08/08 03:45:13;;;;;;;21.67;7.85;;;12.60;99.90;;;;;;5084428;28;20025;-71
2023/08/08 03:47:39;;;;;;;15.95;7.28;;;12.60;99.90;;;;;;5084039;28;20021;-71
2023/08/08 03:50:06;;;;;;;22.17;8.50;;;12.60;99.90;;;;;;5083725;28;20095;-71
2023/08/08 03:52:37;;;;;;;20.55;8.35;;;12.60;99.90;;;;;;5083725;28;20054;-70
2023/08/08 03:55:03;;;;;;;21.60;8.07;;;12.60;99.90;;;;;;5083903;28;20036;-70
2023/08/08 03:57:29;;;;;;;22.73;9.15;;;12.60;99.90;;;;;;5082321;28;20025;-72
2023/08/08 03:59:54;;;;;;;24.10;9.73;;;12.50;99.90;;;;;;5083546;28;20104;-70
2023/08/08 04:02:20;;;;;;;40.88;10.88;;;12.50;99.90;;;;;;5083309;28;20092;-70
2023/08/08 04:04:45;;;;;;;23.55;9.93;;;12.50;99.90;;;;;;5082542;28;20024;-69
2023/08/08 04:07:11;;;;;;;21.52;9.95;;;12.50;99.90;;;;;;5083598;28;20092;-71
2023/08/08 04:09:36;;;;;;;20.67;9.73;;;12.50;99.90;;;;;;5082348;28;20023;-71
2023/08/08 04:12:02;;;;;;;28.15;9.57;;;12.50;99.90;;;;;;5081575;28;20469;-72
2023/08/08 04:14:28;;;;;;;23.65;9.98;;;12.50;99.90;;;;;;5083030;28;20041;-69
2023/08/08 04:16:54;;;;;;;27.63;11.43;;;12.50;99.90;;;;;;5081395;28;20031;-72
2023/08/08 04:19:20;;;;;;;28.85;12.93;;;12.50;99.90;;;;;;5079575;28;20043;-71
2023/08/08 04:21:45;;;;;;;30.48;12.88;;;12.50;99.90;;;;;;5082568;28;20028;-71
2023/08/08 04:24:12;;;;;;;30.92;12.90;;;12.50;99.90;;;;;;5081312;28;20154;-71
2023/08/08 04:26:38;;;;;;;31.80;13.73;;;12.50;99.90;;;;;;5082047;28;20013;-72
2023/08/08 04:29:03;;;;;;;26.30;12.20;;;12.50;99.90;;;;;;5081517;28;20504;-71
2023/08/08 04:31:29;;;;;;;30.13;12.38;;;12.50;99.90;;;;;;5081635;28;20025;-70
2023/08/08 04:33:59;;;;;;;26.00;12.07;;;12.50;99.90;;;;;;5079456;28;20040;-71
2023/08/08 04:36:25;;;;;;;31.45;12.57;;;12.40;99.90;;;;;;5081401;28;20400;-69
2023/08/08 04:38:51;;;;;;;30.40;12.85;;;12.40;99.90;;;;;;5080686;28;20407;-71
2023/08/08 04:41:17;;;;;;;32.90;13.40;;;12.40;99.90;;;;;;5082896;28;20021;-71
2023/08/08 04:43:42;;;;;;;33.80;13.43;;;12.50;99.90;;;;;;5082740;28;20028;-69
2023/08/08 04:46:09;;;;;;;32.38;13.43;;;12.50;99.90;;;;;;5082737;28;20028;-69
2023/08/08 04:48:35;;;;;;;30.13;12.82;;;12.50;99.90;;;;;;5082350;28;20028;-70
2023/08/08 04:51:00;;;;;;;33.13;13.38;;;12.50;99.90;;;;;;5082698;28;20024;-72
2023/08/08 04:53:26;;;;;;;30.58;13.52;;;12.50;99.90;;;;;;5082814;28;20052;-70
2023/08/08 04:55:53;;;;;;;30.63;13.15;;;12.50;99.90;;;;;;5081737;28;20020;-71
2023/08/08 04:58:19;;;;;;;27.33;13.02;;;12.50;99.90;;;;;;5082744;28;20027;-69
2023/08/08 05:00:44;;;;;;;31.65;12.30;;;12.60;99.90;;;;;;5081871;28;20060;-72
2023/08/08 05:03:10;;;;;;;35.70;13.07;;;12.60;99.90;;;;;;5081134;28;20214;-72
2023/08/08 05:05:35;;;;;;;30.98;12.35;;;12.50;99.90;;;;;;5082592;28;20036;-69
2023/08/08 05:08:01;;;;;;;31.52;12.48;;;12.60;99.90;;;;;;5082593;28;20127;-69
2023/08/08 05:10:26;;;;;;;30.42;13.15;;;12.60;99.90;;;;;;5082719;28;20054;-70
2023/08/08 05:12:52;;;;;;;30.08;12.50;;;12.50;99.90;;;;;;5081711;28;20032;-71
2023/08/08 05:15:18;;;;;;;28.05;11.65;;;12.50;99.90;;;;;;5079177;28;20040;-70
2023/08/08 05:17:43;;;;;;;28.98;11.95;;;12.50;99.90;;;;;;5081718;28;20059;-69
2023/08/08 05:20:09;;;;;;;29.38;11.52;;;12.60;99.90;;;;;;5082195;28;20078;-70
2023/08/08 05:22:35;;;;;;;27.80;11.77;;;12.60;99.90;;;;;;5081423;28;20028;-70
2023/08/08 05:25:01;;;;;;;35.88;13.00;;;12.60;99.90;;;;;;5081039;28;20028;-70
2023/08/08 05:27:26;;;;;;;28.10;11.27;;;12.60;99.90;;;;;;5082373;28;20024;-71
2023/08/08 05:29:52;;;;;;;32.13;12.23;;;12.60;99.90;;;;;;5081815;28;20029;-70
2023/08/08 05:32:17;;;;;;;25.13;11.63;;;12.70;99.90;;;;;;5077542;28;20043;-71
2023/08/08 05:34:43;;;;;;;24.17;11.38;;;12.70;99.90;;;;;;5078152;28;20037;-70
2023/08/08 05:37:09;;;;;;;27.25;11.55;;;12.70;99.90;;;;;;5080256;28;20415;-71
2023/08/08 05:39:35;;;;;;;26.02;11.32;;;12.70;99.90;;;;;;5081214;28;20489;-71
2023/08/08 05:42:00;;;;;;;26.45;11.52;;;12.70;99.90;;;;;;5081815;28;20016;-70
2023/08/08 05:44:26;;;;;;;19.25;10.65;;;12.80;99.90;;;;;;5081649;28;20571;-70
2023/08/08 05:46:52;;;;;;;26.00;11.68;;;12.80;99.90;;;;;;5080921;28;20039;-70
2023/08/08 05:49:17;;;;;;;29.02;12.27;;;12.90;99.90;;;;;;5081354;28;20060;-71
2023/08/08 05:51:43;;;;;;;28.38;12.38;;;12.90;99.90;;;;;;5078065;28;20041;-72
2023/08/08 05:54:09;;;;;;;30.58;11.55;;;12.90;99.90;;;;;;5081660;28;20556;-71
2023/08/08 05:56:36;;;;;;;24.95;12.35;;;13.00;99.90;;;;;;5079929;28;20032;-71
2023/08/08 05:59:02;;;;;;;28.63;11.43;;;13.00;99.90;;;;;;5080611;28;20021;-70
2023/08/08 06:01:27;;;;;;;23.27;10.95;;;13.00;99.90;;;;;;5080344;28;20028;-70
2023/08/08 06:03:53;;;;;;;24.60;10.25;;;13.00;99.90;;;;;;5079387;28;20032;-70
2023/08/08 06:06:19;;;;;;;29.50;11.38;;;13.10;99.90;;;;;;5080866;28;20097;-71
2023/08/08 06:08:44;;;;;;;25.27;11.13;;;13.10;99.90;;;;;;5078118;28;20029;-71
2023/08/08 06:11:10;;;;;;;33.08;10.02;;;13.10;99.90;;;;;;5080174;28;20035;-72
2023/08/08 06:13:36;;;;;;;25.58;9.95;;;13.10;99.90;;;;;;5079764;28;20040;-69
2023/08/08 06:16:06;;;;;;;21.88;10.07;;;13.10;99.90;;;;;;5081797;28;20078;-69
2023/08/08 06:18:33;;;;;;;26.42;9.07;;;13.10;99.90;;;;;;5080023;28;20021;-70
2023/08/08 06:20:58;;;;;;;23.40;9.82;;;13.10;99.90;;;;;;5079523;28;20032;-72
2023/08/08 06:23:24;;;;;;;29.15;9.75;;;13.10;99.90;;;;;;5081247;28;20105;-71
2023/08/08 06:25:49;;;;;;;26.30;9.23;;;13.10;99.90;;;;;;5079260;28;20028;-69
2023/08/08 06:28:15;;;;;;;19.02;8.85;;;13.20;99.90;;;;;;5081380;28;20024;-70
2023/08/08 06:30:41;;;;;;;27.58;9.57;;;13.20;99.90;;;;;;5080058;28;20048;-69
2023/08/08 06:33:06;;;;;;;19.33;9.20;;;13.20;99.90;;;;;;5081189;28;20028;-69
2023/08/08 06:35:32;;;;;;;22.85;8.82;;;13.20;99.90;;;;;;5081734;28;20029;-70
2023/08/08 06:37:58;;;;;;;19.42;8.75;;;13.30;99.90;;;;;;5079690;28;20711;-70
2023/08/08 06:40:23;;;;;;;21.00;8.57;;;13.30;99.90;;;;;;5080711;28;20044;-68
2023/08/08 06:42:49;;;;;;;30.05;8.68;;;13.40;99.90;;;;;;5079780;28;20047;-70
2023/08/08 06:45:15;;;;;;;22.73;7.57;;;13.30;99.90;;;;;;5081330;28;20077;-70
2023/08/08 06:47:41;;;;;;;13.77;7.10;;;13.50;99.90;;;;;;5075474;28;20028;-70
2023/08/08 06:50:07;;;;;;;15.80;6.90;;;13.50;99.90;;;;;;5071042;28;20032;-71
2023/08/08 06:52:33;;;;;;;19.27;6.90;;;13.60;99.90;;;;;;5076260;28;20056;-70
2023/08/08 06:55:00;;;;;;;18.60;7.30;;;13.70;99.90;;;;;;5073954;28;20420;-69
2023/08/08 06:57:25;;;;;;;17.02;7.05;;;13.80;99.90;;;;;;5079536;28;20048;-73
2023/08/08 06:59:52;;;;;;;16.35;4.93;;;13.90;99.90;;;;;;5077605;28;20393;-75
2023/08/08 07:02:19;;;;;;;17.88;5.40;;;13.90;99.90;;;;;;5080389;28;20017;-69
2023/08/08 07:04:45;;;;;;;15.10;5.20;;;14.00;99.90;;;;;;5084002;28;20020;-70
2023/08/08 07:07:10;;;;;;;11.77;3.92;;;14.10;99.90;;;;;;5084532;28;20027;-73
2023/08/08 07:09:37;;;;;;;11.52;3.97;;;14.10;99.90;;;;;;5083540;28;20020;-69
2023/08/08 07:12:03;;;;;;;11.80;3.80;;;14.20;99.90;;;;;;5083873;28;20028;-73
2023/08/08 07:14:29;;;;;;;7.32;3.20;;;14.20;99.90;;;;;;5084845;28;20078;-71
2023/08/08 07:16:55;;;;;;;8.73;3.38;;;14.30;99.90;;;;;;5081661;28;20111;-72
2023/08/08 07:19:21;;;;;;;10.23;3.88;;;14.30;99.90;;;;;;5082969;28;20046;-71
2023/08/08 07:21:47;;;;;;;13.82;3.17;;;14.40;99.90;;;;;;5082010;28;20362;-73
2023/08/08 07:24:12;;;;;;;9.80;2.63;;;14.50;99.90;;;;;;5083033;28;20390;-71
2023/08/08 07:26:39;;;;;;;6.95;3.00;;;14.50;99.90;;;;;;5084211;28;20505;-73
2023/08/08 07:29:05;;;;;;;15.10;3.10;;;14.50;99.90;;;;;;5083883;28;20024;-74
2023/08/08 07:31:31;;;;;;;15.52;3.50;;;14.50;99.90;;;;;;5084434;28;20012;-73
2023/08/08 07:33:57;;;;;;;6.45;2.90;;;14.40;99.90;;;;;;5082569;28;20044;-72
2023/08/08 07:36:23;;;;;;;5.03;2.10;;;14.30;99.90;;;;;;5082435;28;20088;-74
2023/08/08 07:38:49;;;;;;;7.97;1.75;;;14.00;99.90;;;;;;5081369;28;20031;-71
2023/08/08 07:41:15;;;;;;;10.07;3.35;;;13.80;99.90;;;;;;5082310;28;20051;-73
2023/08/08 07:43:40;;;;;;;5.45;2.40;;;13.60;99.90;;;;;;5083724;28;20069;-70
2023/08/08 07:46:06;;;;;;;8.88;3.20;;;13.50;99.90;;;;;;5084471;28;20029;-72
2023/08/08 07:48:31;;;;;;;11.27;3.47;;;13.50;99.90;;;;;;5084385;28;20037;-69
2023/08/08 07:50:57;;;;;;;6.90;3.00;;;13.50;99.90;;;;;;5081130;28;20582;-68
2023/08/08 07:53:23;;;;;;;11.13;3.90;;;13.60;99.90;;;;;;5082612;28;20020;-71
2023/08/08 07:55:48;;;;;;;11.32;4.47;;;13.70;99.90;;;;;;5083161;28;20024;-69
2023/08/08 07:58:14;;;;;;;9.10;3.45;;;13.80;99.90;;;;;;5082911;28;20021;-70
2023/08/08 08:00:40;;;;;;;8.95;2.75;;;13.80;99.90;;;;;;5080507;28;20025;-73
2023/08/08 08:03:06;;;;;;;7.00;2.60;;;13.90;99.90;;;;;;5081018;28;20048;-71
2023/08/08 08:05:32;;;;;;;7.72;2.30;;;13.90;99.90;;;;;;5081884;28;20052;-74
2023/08/08 08:07:57;;;;;;;7.63;2.83;;;14.00;99.90;;;;;;5080723;28;20025;-74
2023/08/08 08:10:23;;;;;;;9.98;2.60;;;14.10;99.90;;;;;;5082639;28;20024;-73
2023/08/08 08:12:49;;;;;;;10.63;2.83;;;14.10;99.90;;;;;;5080378;28;20041;-71
2023/08/08 08:15:14;;;;;;;7.32;2.85;;;14.20;99.90;;;;;;5080493;28;20043;-71
2023/08/08 08:17:41;;;;;;;6.90;2.83;;;14.30;99.90;;;;;;5078483;28;20032;-72
2023/08/08 08:20:10;;;;;;;10.27;2.60;;;14.30;99.90;;;;;;5077145;28;20020;-75
2023/08/08 08:22:37;;;;;;;8.10;2.40;;;14.30;99.90;;;;;;5077446;28;20041;-73
2023/08/08 08:25:05;;;;;;;7.05;2.22;;;14.40;99.90;;;;;;5079411;28;20055;-73
2023/08/08 08:27:30;;;;;;;7.50;2.58;;;14.40;99.90;;;;;;5083296;28;20025;-70
2023/08/08 08:29:56;;;;;;;7.85;2.20;;;14.40;99.90;;;;;;5081831;28;20043;-70
2023/08/08 08:32:22;;;;;;;6.72;2.60;;;14.40;99.90;;;;;;5080212;28;20054;-70
2023/08/08 08:34:47;;;;;;;8.90;2.33;;;14.40;99.90;;;;;;5081324;28;20037;-74
2023/08/08 08:37:13;;;;;;;6.65;2.38;;;14.50;99.90;;;;;;5081457;28;21413;-72
2023/08/08 08:39:38;;;;;;;8.52;2.50;;;14.50;99.90;;;;;;5081472;28;20054;-73
2023/08/08 08:42:05;;;;;;;7.38;2.42;;;14.50;99.90;;;;;;5079278;28;20086;-75
2023/08/08 08:44:31;;;;;;;6.85;2.10;;;14.60;99.90;;;;;;5079761;28;20036;-72
2023/08/08 08:47:01;;;;;;;9.43;2.50;;;14.80;99.90;;;;;;5079325;28;20044;-75
2023/08/08 08:49:30;;;;;;;12.82;2.50;;;14.90;99.90;;;;;;5079511;28;20088;-74
2023/08/08 08:51:57;;;;;;;9.70;2.45;;;15.00;99.90;;;;;;5074857;28;20108;-70
2023/08/08 08:54:24;;;;;;;7.95;2.10;;;15.10;99.90;;;;;;5080084;28;20048;-70
2023/08/08 08:56:50;;;;;;;5.90;2.05;;;15.30;99.90;;;;;;5081555;28;20124;-70
2023/08/08 08:59:15;;;;;;;7.70;1.70;;;15.50;99.90;;;;;;5078805;28;20064;-74
2023/08/08 09:01:41;;;;;;;6.05;2.05;;;15.70;99.90;;;;;;5079799;28;20016;-72
2023/08/08 09:04:08;;;;;;;7.20;1.60;;;15.70;99.90;;;;;;5080683;28;20017;-75
2023/08/08 09:06:35;;;;;;;7.03;1.85;;;15.70;99.90;;;;;;5077429;28;20025;-71
2023/08/08 09:09:00;;;;;;;5.13;1.60;;;15.60;99.90;;;;;;5079961;28;20017;-76
2023/08/08 09:11:26;;;;;;;7.50;1.70;;;15.60;99.90;;;;;;5081624;28;20055;-77
2023/08/08 09:13:52;;;;;;;6.15;1.45;;;15.60;99.90;;;;;;5078177;28;20126;-72
2023/08/08 09:16:17;;;;;;;3.08;1.20;;;15.60;99.90;;;;;;5079543;28;20063;-73
2023/08/08 09:18:43;;;;;;;5.20;1.50;;;15.70;99.90;;;;;;5080648;28;20028;-73
2023/08/08 09:21:09;;;;;;;3.75;0.80;;;15.80;99.90;;;;;;5082574;28;20020;-73
2023/08/08 09:23:37;;;;;;;1.75;0.50;;;15.70;99.90;;;;;;5081945;28;20032;-73
2023/08/08 09:26:03;;;;;;;1.38;0.47;;;15.50;99.90;;;;;;5080682;28;20020;-72
2023/08/08 09:28:30;;;;;;;1.20;0.50;;;15.20;99.90;;;;;;5080828;28;20039;-72
2023/08/08 09:30:55;;;;;;;3.53;0.75;;;14.80;99.90;;;;;;5081330;28;20492;-78
2023/08/08 09:33:21;;;;;;;2.28;0.70;;;14.50;99.90;;;;;;5081112;28;20056;-73
2023/08/08 09:35:46;;;;;;;3.58;0.80;;;14.30;99.90;;;;;;5079117;28;20044;-73
2023/08/08 09:38:12;;;;;;;2.97;0.70;;;14.30;99.90;;;;;;5081734;28;20017;-73
2023/08/08 09:40:37;;;;;;;3.72;1.02;;;14.40;99.90;;;;;;5079852;28;20034;-74
2023/08/08 09:43:03;;;;;;;2.28;0.85;;;14.40;99.90;;;;;;5081772;28;20389;-77
2023/08/08 09:45:39;;;;;;;2.17;0.90;;;14.40;99.90;;;;;;5080519;28;20116;-72
2023/08/08 09:48:06;;;;;;;3.72;1.00;;;14.40;99.90;;;;;;5079464;28;20028;-73
2023/08/08 09:50:33;;;;;;;5.70;1.10;;;14.40;99.90;;;;;;5080390;28;20078;-75
2023/08/08 09:52:59;;;;;;;3.58;0.95;;;14.40;99.90;;;;;;5082032;28;20052;-73
2023/08/08 09:55:25;;;;;;;5.35;0.90;;;14.50;99.90;;;;;;5081538;28;20081;-76
2023/08/08 09:57:53;;;;;;;3.00;1.60;;;14.60;99.90;;;;;;5081420;28;20078;-73
2023/08/08 10:00:20;;;;;;;4.88;1.10;;;14.80;99.90;;;;;;5076630;28;20028;-74
2023/08/08 10:02:46;;;;;;;7.90;1.40;;;14.80;99.90;;;;;;5076898;28;20028;-74
2023/08/08 10:05:14;;;;;;;7.20;1.40;;;14.90;99.90;;;;;;5077244;28;20035;-74
2023/08/08 10:07:41;;;;;;;5.28;1.20;;;15.00;99.90;;;;;;5079304;28;20039;-71
2023/08/08 10:10:09;;;;;;;3.95;1.20;;;14.90;99.90;;;;;;5075056;28;20081;-72
2023/08/08 10:12:38;;;;;;;7.20;1.25;;;15.00;99.90;;;;;;5077353;28;20107;-72
2023/08/08 10:15:07;;;;;;;4.15;1.20;;;14.90;99.90;;;;;;5078222;28;20040;-73
2023/08/08 10:17:40;;;;;;;4.22;1.30;;;14.90;99.90;;;;;;5078624;28;20021;-73
2023/08/08 10:20:11;;;;;;;8.40;1.40;;;15.00;99.90;;;;;;5078695;28;20058;-72
2023/08/08 10:22:41;;;;;;;7.50;1.10;;;15.00;99.90;;;;;;5076632;28;20413;-74
2023/08/08 10:25:08;;;;;;;3.65;1.33;;;15.20;99.90;;;;;;5077942;28;20161;-74
2023/08/08 10:27:35;;;;;;;8.73;1.58;;;15.50;99.90;;;;;;5078443;28;20032;-76
2023/08/08 10:30:12;;;;;;;3.75;1.27;;;15.70;99.90;;;;;;5079986;28;20021;-73
2023/08/08 10:32:41;;;;;;;10.15;1.45;;;15.80;99.90;;;;;;5078796;28;20028;-75
2023/08/08 10:35:09;;;;;;;7.43;1.65;;;15.80;99.90;;;;;;5078081;28;20041;-74
2023/08/08 10:37:35;;;;;;;6.07;1.45;;;15.80;99.90;;;;;;5079722;28;20029;-74
2023/08/08 10:40:05;;;;;;;5.93;1.40;;;15.60;99.90;;;;;;5084882;28;20017;-75
2023/08/08 10:42:32;;;;;;;4.10;1.10;;;15.60;99.90;;;;;;5083294;28;20040;-75
2023/08/08 10:45:02;;;;;;;6.90;1.45;;;15.70;99.90;;;;;;5083413;28;20178;-72
2023/08/08 10:47:34;;;;;;;10.18;1.42;;;15.70;99.90;;;;;;5082320;28;20064;-74
2023/08/08 10:50:23;;;;;;;3.75;1.35;;;15.80;99.90;;;;;;5082752;28;20047;-74
2023/08/08 10:52:54;;;;;;;5.53;1.65;;;15.80;99.90;;;;;;5080288;28;20063;-73
2023/08/08 10:55:23;;;;;;;7.10;1.63;;;15.80;99.90;;;;;;5080025;28;20087;-73
2023/08/08 10:58:04;;;;;;;5.78;1.70;;;15.80;99.90;;;;;;5082495;28;20051;-76
2023/08/08 11:00:35;;;;;;;6.70;1.17;;;15.90;99.90;;;;;;5078357;28;20111;-73
2023/08/08 11:03:04;;;;;;;7.03;1.50;;;16.20;99.90;;;;;;5081987;28;20043;-72
2023/08/08 11:05:35;;;;;;;8.50;1.25;;;16.30;99.90;;;;;;5083214;28;20036;-73
2023/08/08 11:08:03;;;;;;;9.38;2.08;;;16.30;99.90;;;;;;5083472;28;20044;-75
2023/08/08 11:10:31;;;;;;;5.72;1.05;;;16.30;99.90;;;;;;5081992;28;20040;-74
2023/08/08 11:12:59;;;;;;;10.20;2.05;;;16.20;99.90;;;;;;5083825;28;20081;-75
2023/08/08 11:15:26;;;;;;;3.08;1.20;;;16.20;99.90;;;;;;5081875;28;20036;-74
2023/08/08 11:17:54;;;;;;;4.32;1.05;;;16.10;99.90;;;;;;5078871;28;20044;-73
2023/08/08 11:20:20;;;;;;;5.32;1.10;;;16.00;99.90;;;;;;5081694;28;20020;-75
2023/08/08 11:22:54;;;;;;;3.28;1.00;;;15.90;99.90;;;;;;5082096;28;20028;-71
2023/08/08 11:25:21;;;;;;;2.80;1.00;;;15.70;99.90;;;;;;5082537;28;20107;-73
2023/08/08 11:27:53;;;;;;;2.53;0.85;;;15.40;99.90;;;;;;5083207;28;20051;-74
2023/08/08 11:30:20;;;;;;;3.95;0.90;;;15.10;99.90;;;;;;5082016;28;20024;-71
2023/08/08 11:32:49;;;;;;;5.22;1.00;;;15.00;99.90;;;;;;5079661;28;20024;-70
2023/08/08 11:35:22;;;;;;;4.38;0.95;;;14.90;99.90;;;;;;5081124;28;20033;-73
2023/08/08 11:37:50;;;;;;;3.05;0.90;;;14.90;99.90;;;;;;5080489;28;20080;-72
2023/08/08 11:40:16;;;;;;;3.15;1.30;;;15.10;99.90;;;;;;5078708;28;20056;-72
2023/08/08 11:42:42;;;;;;;4.68;1.20;;;15.40;99.90;;;;;;5080915;28;20060;-75
2023/08/08 11:45:12;;;;;;;5.47;1.20;;;15.60;99.90;;;;;;5081291;28;20020;-73
2023/08/08 11:47:39;;;;;;;2.47;0.95;;;15.70;99.90;;;;;;5082869;28;20096;-71
2023/08/08 11:50:07;;;;;;;2.95;1.10;;;15.80;99.90;;;;;;5079609;28;20021;-72
2023/08/08 11:52:40;;;;;;;2.17;1.00;;;15.80;99.90;;;;;;5081954;28;20139;-75
2023/08/08 11:55:09;;;;;;;4.68;1.05;;;15.90;99.90;;;;;;5082447;28;20067;-74
2023/08/08 11:57:37;;;;;;;5.90;1.05;;;16.00;99.90;;;;;;5080930;28;20027;-74
2023/08/08 12:00:07;;;;;;;2.08;0.88;;;15.90;99.90;;;;;;5079737;28;20028;-75
2023/08/08 12:02:34;;;;;;;3.20;1.00;;;15.90;99.90;;;;;;5078744;28;20036;-74
2023/08/08 12:05:11;;;;;;;3.47;1.00;;;15.80;99.90;;;;;;5081946;28;20047;-73
2023/08/08 12:07:37;;;;;;;1.98;0.75;;;15.70;99.90;;;;;;5081620;28;20028;-72
2023/08/08 12:10:04;;;;;;;1.95;1.00;;;15.60;99.90;;;;;;5080323;28;20056;-74
2023/08/08 12:12:36;;;;;;;6.18;1.20;;;15.70;99.90;;;;;;5077922;28;20035;-72
2023/08/08 12:15:09;;;;;;;4.53;0.70;;;15.70;99.90;;;;;;5077021;28;20044;-73
2023/08/08 12:17:36;;;;;;;5.85;0.90;;;16.00;99.90;;;;;;5082981;28;20035;-72
2023/08/08 12:20:07;;;;;;;4.35;0.93;;;16.20;99.90;;;;;;5081398;28;20099;-74
2023/08/08 12:22:33;;;;;;;3.25;0.90;;;16.40;99.90;;;;;;5077936;28;20312;-73
2023/08/08 12:24:59;;;;;;;4.80;1.48;;;16.70;99.90;;;;;;5083281;28;20028;-71
2023/08/08 12:27:25;;;;;;;7.47;1.27;;;16.90;99.90;;;;;;5082433;28;20397;-72
2023/08/08 12:29:51;;;;;;;6.35;1.05;;;17.20;99.90;;;;;;5079049;28;20028;-71
2023/08/08 12:32:20;;;;;;;7.15;1.20;;;17.40;99.90;;;;;;5075545;28;20028;-75
2023/08/08 12:34:45;;;;;;;5.95;1.00;;;17.60;99.90;;;;;;5080768;28;20048;-72
2023/08/08 12:37:11;;;;;;;7.40;1.27;;;17.80;99.90;;;;;;5083024;28;20041;-73